sensor_id;sensor_type;location;lat;lon;timestamp;temperature;humidity
21280;DHT22;11764;43.100;25.716;2022-08-18T00:01:43;26.40;99.90
21280;DHT22;11764;43.100;25.716;2022-08-18T00:04:10;26.40;99.90
21280;DHT22;11764;43.100;25.716;2022-08-18T00:06:35;26.40;99.90
21280;DHT22;11764;43.100;25.716;2022-08-18T00:09:02;26.40;99.90
21280;DHT22;11764;43.100;25.716;2022-08-18T00:11:29;26.30;99.90
21280;DHT22;11764;43.100;25.716;2022-08-18T00:13:55;26.30;99.90
21280;DHT22;11764;43.100;25.716;2022-08-18T00:16:20;26.30;99.90
21280;DHT22;11764;43.100;25.716;2022-08-18T00:18:46;26.20;99.90
21280;DHT22;11764;43.100;25.716;2022-08-18T00:21:12;26.20;99.90
21280;DHT22;11764;43.100;25.716;2022-08-18T00:23:37;26.20;99.90
21280;DHT22;11764;43.100;25.716;2022-08-18T00:26:03;26.10;99.90
21280;DHT22;11764;43.100;25.716;2022-08-18T00:28:28;26.10;99.90
21280;DHT22;11764;43.100;25.716;2022-08-18T00:30:54;26.10;99.90
21280;DHT22;11764;43.100;25.716;2022-08-18T00:33:20;26.00;99.90
21280;DHT22;11764;43.100;25.716;2022-08-18T00:35:46;26.00;99.90
21280;DHT22;11764;43.100;25.716;2022-08-18T00:38:12;26.00;99.90
21280;DHT22;11764;43.100;25.716;2022-08-18T00:40:38;26.00;99.90
21280;DHT22;11764;43.100;25.716;2022-08-18T00:43:05;26.00;99.90
21280;DHT22;11764;43.100;25.716;2022-08-18T00:45:36;26.00;99.90
21280;DHT22;11764;43.100;25.716;2022-08-18T00:48:05;25.90;99.90
21280;DHT22;11764;43.100;25.716;2022-08-18T00:50:38;26.00;99.90
21280;DHT22;11764;43.100;25.716;2022-08-18T00:53:06;26.00;99.90
21280;DHT22;11764;43.100;25.716;2022-08-18T00:55:33;26.00;99.90
21280;DHT22;11764;43.100;25.716;2022-08-18T00:58:02;26.10;99.90
21280;DHT22;11764;43.100;25.716;2022-08-18T01:00:30;26.10;99.90
21280;DHT22;11764;43.100;25.716;2022-08-18T01:02:58;26.00;99.90
21280;DHT22;11764;43.100;25.716;2022-08-18T01:05:30;25.90;99.90
21280;DHT22;11764;43.100;25.716;2022-08-18T01:07:58;25.90;99.90
21280;DHT22;11764;43.100;25.716;2022-08-18T01:10:24;25.70;99.90
21280;DHT22;11764;43.100;25.716;2022-08-18T01:12:54;25.50;99.90
21280;DHT22;11764;43.100;25.716;2022-08-18T01:15:20;25.40;99.90
21280;DHT22;11764;43.100;25.716;2022-08-18T01:17:47;25.30;99.90
21280;DHT22;11764;43.100;25.716;2022-08-18T01:21:18;25.40;99.90
21280;DHT22;11764;43.100;25.716;2022-08-18T01:23:46;25.40;99.90
21280;DHT22;11764;43.100;25.716;2022-08-18T01:26:12;25.50;99.90
21280;DHT22;11764;43.100;25.716;2022-08-18T01:28:39;25.50;99.90
21280;DHT22;11764;43.100;25.716;2022-08-18T01:31:05;25.50;99.90
21280;DHT22;11764;43.100;25.716;2022-08-18T01:33:49;25.50;99.90
21280;DHT22;11764;43.100;25.716;2022-08-18T01:36:16;25.50;99.90
21280;DHT22;11764;43.100;25.716;2022-08-18T01:38:46;25.40;99.90
21280;DHT22;11764;43.100;25.716;2022-08-18T01:41:12;25.40;99.90
21280;DHT22;11764;43.100;25.716;2022-08-18T01:43:38;25.40;99.90
21280;DHT22;11764;43.100;25.716;2022-08-18T01:46:04;25.40;99.90
21280;DHT22;11764;43.100;25.716;2022-08-18T01:48:30;25.40;99.90
21280;DHT22;11764;43.100;25.716;2022-08-18T01:51:06;25.30;99.90
21280;DHT22;11764;43.100;25.716;2022-08-18T01:53:32;25.40;99.90
21280;DHT22;11764;43.100;25.716;2022-08-18T01:55:57;25.40;99.90
21280;DHT22;11764;43.100;25.716;2022-08-18T01:58:23;25.30;99.90
21280;DHT22;11764;43.100;25.716;2022-08-18T02:00:53;25.30;99.90
21280;DHT22;11764;43.100;25.716;2022-08-18T02:03:20;25.30;99.90
21280;DHT22;11764;43.100;25.716;2022-08-18T02:05:48;25.30;99.90
21280;DHT22;11764;43.100;25.716;2022-08-18T02:08:14;25.40;99.90
21280;DHT22;11764;43.100;25.716;2022-08-18T02:10:40;25.30;99.90
21280;DHT22;11764;43.100;25.716;2022-08-18T02:13:06;25.30;99.90
21280;DHT22;11764;43.100;25.716;2022-08-18T02:15:32;25.30;99.90
21280;DHT22;11764;43.100;25.716;2022-08-18T02:17:57;25.30;99.90
21280;DHT22;11764;43.100;25.716;2022-08-18T02:20:23;25.30;99.90
21280;DHT22;11764;43.100;25.716;2022-08-18T02:22:48;25.30;99.90
21280;DHT22;11764;43.100;25.716;2022-08-18T02:25:14;25.20;99.90
21280;DHT22;11764;43.100;25.716;2022-08-18T02:27:40;25.20;99.90
21280;DHT22;11764;43.100;25.716;2022-08-18T02:30:07;25.20;99.90
21280;DHT22;11764;43.100;25.716;2022-08-18T02:32:33;25.30;99.90
21280;DHT22;11764;43.100;25.716;2022-08-18T02:34:59;25.20;99.90
21280;DHT22;11764;43.100;25.716;2022-08-18T02:37:24;25.20;99.90
21280;DHT22;11764;43.100;25.716;2022-08-18T02:39:50;25.10;99.90
21280;DHT22;11764;43.100;25.716;2022-08-18T02:42:16;25.10;99.90
21280;DHT22;11764;43.100;25.716;2022-08-18T02:44:41;25.10;99.90
21280;DHT22;11764;43.100;25.716;2022-08-18T02:47:07;25.10;99.90
21280;DHT22;11764;43.100;25.716;2022-08-18T02:49:33;25.00;99.90
21280;DHT22;11764;43.100;25.716;2022-08-18T02:51:59;25.10;99.90
21280;DHT22;11764;43.100;25.716;2022-08-18T02:54:25;25.00;99.90
21280;DHT22;11764;43.100;25.716;2022-08-18T02:56:51;25.00;99.90
21280;DHT22;11764;43.100;25.716;2022-08-18T02:59:19;24.90;99.90
21280;DHT22;11764;43.100;25.716;2022-08-18T03:01:45;24.80;99.90
21280;DHT22;11764;43.100;25.716;2022-08-18T03:04:13;24.90;99.90
21280;DHT22;11764;43.100;25.716;2022-08-18T03:06:40;24.90;99.90
21280;DHT22;11764;43.100;25.716;2022-08-18T03:09:06;24.90;99.90
21280;DHT22;11764;43.100;25.716;2022-08-18T03:11:32;25.00;99.90
21280;DHT22;11764;43.100;25.716;2022-08-18T03:13:57;24.90;99.90
21280;DHT22;11764;43.100;25.716;2022-08-18T03:16:24;24.90;99.90
21280;DHT22;11764;43.100;25.716;2022-08-18T03:18:50;24.90;99.90
21280;DHT22;11764;43.100;25.716;2022-08-18T03:21:20;25.00;99.90
21280;DHT22;11764;43.100;25.716;2022-08-18T03:23:47;25.00;99.90
21280;DHT22;11764;43.100;25.716;2022-08-18T03:26:14;25.00;99.90
21280;DHT22;11764;43.100;25.716;2022-08-18T03:28:41;24.90;99.90
21280;DHT22;11764;43.100;25.716;2022-08-18T03:31:07;24.90;99.90
21280;DHT22;11764;43.100;25.716;2022-08-18T03:33:33;24.80;99.90
21280;DHT22;11764;43.100;25.716;2022-08-18T03:36:05;24.80;99.90
21280;DHT22;11764;43.100;25.716;2022-08-18T03:38:31;24.80;99.90
21280;DHT22;11764;43.100;25.716;2022-08-18T03:40:56;24.90;99.90
21280;DHT22;11764;43.100;25.716;2022-08-18T03:43:22;25.00;99.90
21280;DHT22;11764;43.100;25.716;2022-08-18T03:45:49;25.00;99.90
21280;DHT22;11764;43.100;25.716;2022-08-18T03:48:14;25.10;99.90
21280;DHT22;11764;43.100;25.716;2022-08-18T03:50:40;25.00;99.90
21280;DHT22;11764;43.100;25.716;2022-08-18T03:53:06;25.00;99.90
21280;DHT22;11764;43.100;25.716;2022-08-18T03:55:32;25.10;99.90
21280;DHT22;11764;43.100;25.716;2022-08-18T03:57:58;25.10;99.90
21280;DHT22;11764;43.100;25.716;2022-08-18T04:00:30;25.20;99.90
21280;DHT22;11764;43.100;25.716;2022-08-18T04:02:56;25.30;99.90
21280;DHT22;11764;43.100;25.716;2022-08-18T04:05:24;25.40;99.90
21280;DHT22;11764;43.100;25.716;2022-08-18T04:07:49;25.40;99.90
21280;DHT22;11764;43.100;25.716;2022-08-18T04:10:15;25.50;99.90
21280;DHT22;11764;43.100;25.716;2022-08-18T04:12:41;25.50;99.90
21280;DHT22;11764;43.100;25.716;2022-08-18T04:15:07;25.50;99.90
21280;DHT22;11764;43.100;25.716;2022-08-18T04:17:33;25.40;99.90
21280;DHT22;11764;43.100;25.716;2022-08-18T04:19:59;25.50;99.90
21280;DHT22;11764;43.100;25.716;2022-08-18T04:22:24;25.50;99.90
21280;DHT22;11764;43.100;25.716;2022-08-18T04:24:50;25.60;99.90
21280;DHT22;11764;43.100;25.716;2022-08-18T04:27:16;25.70;99.90
21280;DHT22;11764;43.100;25.716;2022-08-18T04:29:42;25.70;99.90
21280;DHT22;11764;43.100;25.716;2022-08-18T04:32:08;25.50;99.90
21280;DHT22;11764;43.100;25.716;2022-08-18T04:34:33;25.60;99.90
21280;DHT22;11764;43.100;25.716;2022-08-18T04:36:59;25.70;99.90
21280;DHT22;11764;43.100;25.716;2022-08-18T04:39:26;25.80;99.90
21280;DHT22;11764;43.100;25.716;2022-08-18T04:41:52;25.90;99.90
21280;DHT22;11764;43.100;25.716;2022-08-18T04:44:17;26.00;99.90
21280;DHT22;11764;43.100;25.716;2022-08-18T04:46:45;26.10;99.90
21280;DHT22;11764;43.100;25.716;2022-08-18T04:49:12;26.10;99.90
21280;DHT22;11764;43.100;25.716;2022-08-18T04:51:42;26.10;99.90
21280;DHT22;11764;43.100;25.716;2022-08-18T04:54:08;26.10;99.90
21280;DHT22;11764;43.100;25.716;2022-08-18T04:56:36;26.30;99.90
21280;DHT22;11764;43.100;25.716;2022-08-18T04:59:06;26.40;99.90
21280;DHT22;11764;43.100;25.716;2022-08-18T05:01:36;26.40;99.90
21280;DHT22;11764;43.100;25.716;2022-08-18T05:04:02;26.40;99.90
21280;DHT22;11764;43.100;25.716;2022-08-18T05:06:28;26.60;99.90
21280;DHT22;11764;43.100;25.716;2022-08-18T05:08:56;26.60;99.90
21280;DHT22;11764;43.100;25.716;2022-08-18T05:11:22;26.60;99.90
21280;DHT22;11764;43.100;25.716;2022-08-18T05:13:49;26.70;99.90
21280;DHT22;11764;43.100;25.716;2022-08-18T05:16:17;26.70;99.90
21280;DHT22;11764;43.100;25.716;2022-08-18T05:18:42;26.70;99.90
21280;DHT22;11764;43.100;25.716;2022-08-18T05:21:10;26.70;99.90
21280;DHT22;11764;43.100;25.716;2022-08-18T05:23:43;26.70;99.90
21280;DHT22;11764;43.100;25.716;2022-08-18T05:26:10;26.80;99.90
21280;DHT22;11764;43.100;25.716;2022-08-18T05:28:37;27.00;99.90
21280;DHT22;11764;43.100;25.716;2022-08-18T05:31:07;27.20;99.90
21280;DHT22;11764;43.100;25.716;2022-08-18T05:33:34;27.20;99.90
21280;DHT22;11764;43.100;25.716;2022-08-18T05:36:03;27.20;99.90
21280;DHT22;11764;43.100;25.716;2022-08-18T05:38:52;27.00;99.90
21280;DHT22;11764;43.100;25.716;2022-08-18T05:41:20;27.10;99.90
21280;DHT22;11764;43.100;25.716;2022-08-18T05:43:47;27.30;99.90
21280;DHT22;11764;43.100;25.716;2022-08-18T05:46:13;27.30;99.90
21280;DHT22;11764;43.100;25.716;2022-08-18T05:48:39;27.40;99.90
21280;DHT22;11764;43.100;25.716;2022-08-18T05:51:10;27.40;99.90
21280;DHT22;11764;43.100;25.716;2022-08-18T05:53:36;27.50;99.90
21280;DHT22;11764;43.100;25.716;2022-08-18T05:56:22;27.40;99.90
21280;DHT22;11764;43.100;25.716;2022-08-18T05:59:07;27.40;99.90
21280;DHT22;11764;43.100;25.716;2022-08-18T06:01:37;27.50;99.90
21280;DHT22;11764;43.100;25.716;2022-08-18T06:04:04;27.40;99.90
21280;DHT22;11764;43.100;25.716;2022-08-18T06:06:31;27.30;99.90
21280;DHT22;11764;43.100;25.716;2022-08-18T06:11:30;27.60;99.90
21280;DHT22;11764;43.100;25.716;2022-08-18T06:13:55;27.50;99.90
21280;DHT22;11764;43.100;25.716;2022-08-18T06:18:58;27.60;99.90
21280;DHT22;11764;43.100;25.716;2022-08-18T06:24:05;27.90;99.90
21280;DHT22;11764;43.100;25.716;2022-08-18T06:31:55;27.80;99.90
21280;DHT22;11764;43.100;25.716;2022-08-18T06:36:57;27.70;99.90
21280;DHT22;11764;43.100;25.716;2022-08-18T06:42:22;27.90;99.90
21280;DHT22;11764;43.100;25.716;2022-08-18T06:44:54;27.80;99.90
21280;DHT22;11764;43.100;25.716;2022-08-18T06:53:11;27.80;99.90
21280;DHT22;11764;43.100;25.716;2022-08-18T06:55:38;28.00;99.90
21280;DHT22;11764;43.100;25.716;2022-08-18T06:58:25;28.00;99.90
21280;DHT22;11764;43.100;25.716;2022-08-18T07:08:30;28.60;99.90
21280;DHT22;11764;43.100;25.716;2022-08-18T07:11:08;28.70;99.90
21280;DHT22;11764;43.100;25.716;2022-08-18T07:13:36;28.80;99.90
21280;DHT22;11764;43.100;25.716;2022-08-18T07:16:17;28.90;99.90
21280;DHT22;11764;43.100;25.716;2022-08-18T07:18:42;28.90;99.90
21280;DHT22;11764;43.100;25.716;2022-08-18T07:21:08;29.00;99.90
21280;DHT22;11764;43.100;25.716;2022-08-18T07:23:51;29.00;99.90
21280;DHT22;11764;43.100;25.716;2022-08-18T07:26:22;28.80;99.90
21280;DHT22;11764;43.100;25.716;2022-08-18T07:28:49;28.50;99.90
21280;DHT22;11764;43.100;25.716;2022-08-18T07:34:03;28.90;99.90
21280;DHT22;11764;43.100;25.716;2022-08-18T07:36:31;29.10;99.90
21280;DHT22;11764;43.100;25.716;2022-08-18T07:39:00;29.10;99.90
21280;DHT22;11764;43.100;25.716;2022-08-18T07:41:35;29.30;99.90
21280;DHT22;11764;43.100;25.716;2022-08-18T07:44:06;29.40;99.90
21280;DHT22;11764;43.100;25.716;2022-08-18T07:48:59;29.60;99.90
21280;DHT22;11764;43.100;25.716;2022-08-18T07:51:28;29.70;99.90
21280;DHT22;11764;43.100;25.716;2022-08-18T08:02:50;29.80;99.90
21280;DHT22;11764;43.100;25.716;2022-08-18T08:16:03;29.90;99.90
21280;DHT22;11764;43.100;25.716;2022-08-18T08:21:21;29.40;99.90
21280;DHT22;11764;43.100;25.716;2022-08-18T08:36:33;30.40;99.90
21280;DHT22;11764;43.100;25.716;2022-08-18T08:39:01;30.50;99.90
21280;DHT22;11764;43.100;25.716;2022-08-18T08:41:30;30.70;99.90
21280;DHT22;11764;43.100;25.716;2022-08-18T08:46:48;30.80;99.90
21280;DHT22;11764;43.100;25.716;2022-08-18T08:52:02;31.20;99.90
21280;DHT22;11764;43.100;25.716;2022-08-18T08:54:40;31.40;99.90
21280;DHT22;11764;43.100;25.716;2022-08-18T08:57:07;31.40;99.90
21280;DHT22;11764;43.100;25.716;2022-08-18T08:59:35;31.30;99.90
21280;DHT22;11764;43.100;25.716;2022-08-18T09:20:06;31.50;99.90
21280;DHT22;11764;43.100;25.716;2022-08-18T09:25:08;32.00;99.90
21280;DHT22;11764;43.100;25.716;2022-08-18T09:27:40;31.90;99.90
21280;DHT22;11764;43.100;25.716;2022-08-18T09:30:07;32.00;99.90
21280;DHT22;11764;43.100;25.716;2022-08-18T09:32:37;32.10;99.90
21280;DHT22;11764;43.100;25.716;2022-08-18T09:40:33;31.90;98.70
21280;DHT22;11764;43.100;25.716;2022-08-18T09:46:03;32.20;97.80
21280;DHT22;11764;43.100;25.716;2022-08-18T09:48:39;31.80;98.00
21280;DHT22;11764;43.100;25.716;2022-08-18T09:51:19;31.90;97.30
21280;DHT22;11764;43.100;25.716;2022-08-18T09:53:52;32.00;97.70
21280;DHT22;11764;43.100;25.716;2022-08-18T09:59:02;32.10;95.10
21280;DHT22;11764;43.100;25.716;2022-08-18T10:06:40;32.40;94.00
21280;DHT22;11764;43.100;25.716;2022-08-18T10:09:21;32.40;94.70
21280;DHT22;11764;43.100;25.716;2022-08-18T10:17:32;32.80;93.20
21280;DHT22;11764;43.100;25.716;2022-08-18T10:22:36;33.00;91.60
21280;DHT22;11764;43.100;25.716;2022-08-18T10:25:03;33.00;91.70
21280;DHT22;11764;43.100;25.716;2022-08-18T10:29:58;33.20;91.90
21280;DHT22;11764;43.100;25.716;2022-08-18T10:32:34;33.20;90.90
21280;DHT22;11764;43.100;25.716;2022-08-18T10:35:03;33.20;91.70
21280;DHT22;11764;43.100;25.716;2022-08-18T10:40:03;33.30;91.00
21280;DHT22;11764;43.100;25.716;2022-08-18T10:42:37;33.50;90.40
21280;DHT22;11764;43.100;25.716;2022-08-18T10:45:23;33.60;89.70
21280;DHT22;11764;43.100;25.716;2022-08-18T10:50:27;33.30;87.10
21280;DHT22;11764;43.100;25.716;2022-08-18T10:55:27;33.20;85.50
21280;DHT22;11764;43.100;25.716;2022-08-18T11:00:27;33.30;85.10
21280;DHT22;11764;43.100;25.716;2022-08-18T11:05:34;33.60;84.20
21280;DHT22;11764;43.100;25.716;2022-08-18T11:08:01;33.00;84.30
21280;DHT22;11764;43.100;25.716;2022-08-18T11:10:39;33.00;85.00
21280;DHT22;11764;43.100;25.716;2022-08-18T11:16:10;33.50;85.20
21280;DHT22;11764;43.100;25.716;2022-08-18T11:23:41;33.50;84.80
21280;DHT22;11764;43.100;25.716;2022-08-18T11:26:13;33.60;84.00
21280;DHT22;11764;43.100;25.716;2022-08-18T11:28:39;33.70;83.30
21280;DHT22;11764;43.100;25.716;2022-08-18T11:31:04;33.80;84.00
21280;DHT22;11764;43.100;25.716;2022-08-18T11:33:30;33.80;83.70
21280;DHT22;11764;43.100;25.716;2022-08-18T11:35:56;33.80;83.40
21280;DHT22;11764;43.100;25.716;2022-08-18T11:38:22;33.40;84.00
21280;DHT22;11764;43.100;25.716;2022-08-18T11:40:49;33.30;85.40
21280;DHT22;11764;43.100;25.716;2022-08-18T11:43:29;33.70;85.30
21280;DHT22;11764;43.100;25.716;2022-08-18T11:45:57;33.70;83.50
21280;DHT22;11764;43.100;25.716;2022-08-18T11:48:35;33.80;84.00
21280;DHT22;11764;43.100;25.716;2022-08-18T11:51:24;34.00;83.70
21280;DHT22;11764;43.100;25.716;2022-08-18T11:53:51;34.10;82.00
21280;DHT22;11764;43.100;25.716;2022-08-18T11:56:28;34.00;82.20
21280;DHT22;11764;43.100;25.716;2022-08-18T12:03:58;34.20;81.60
21280;DHT22;11764;43.100;25.716;2022-08-18T12:06:31;34.20;82.10
21280;DHT22;11764;43.100;25.716;2022-08-18T12:08:58;34.40;82.00
21280;DHT22;11764;43.100;25.716;2022-08-18T12:11:27;34.20;82.60
21280;DHT22;11764;43.100;25.716;2022-08-18T12:13:57;34.00;81.80
21280;DHT22;11764;43.100;25.716;2022-08-18T12:16:39;34.20;83.10
21280;DHT22;11764;43.100;25.716;2022-08-18T12:19:06;34.20;82.70
21280;DHT22;11764;43.100;25.716;2022-08-18T12:21:35;34.20;82.30
21280;DHT22;11764;43.100;25.716;2022-08-18T12:24:01;34.20;81.00
21280;DHT22;11764;43.100;25.716;2022-08-18T12:26:27;34.20;79.90
21280;DHT22;11764;43.100;25.716;2022-08-18T12:28:53;34.10;79.00
21280;DHT22;11764;43.100;25.716;2022-08-18T12:31:18;34.00;79.10
21280;DHT22;11764;43.100;25.716;2022-08-18T12:33:44;33.80;80.10
21280;DHT22;11764;43.100;25.716;2022-08-18T12:36:09;34.10;77.80
21280;DHT22;11764;43.100;25.716;2022-08-18T12:38:35;34.20;77.90
21280;DHT22;11764;43.100;25.716;2022-08-18T12:41:00;34.40;77.50
21280;DHT22;11764;43.100;25.716;2022-08-18T12:43:26;34.30;76.70
21280;DHT22;11764;43.100;25.716;2022-08-18T12:45:52;34.20;77.00
21280;DHT22;11764;43.100;25.716;2022-08-18T12:48:17;34.30;77.90
21280;DHT22;11764;43.100;25.716;2022-08-18T12:50:43;34.40;77.90
21280;DHT22;11764;43.100;25.716;2022-08-18T12:53:09;34.60;78.50
21280;DHT22;11764;43.100;25.716;2022-08-18T12:55:37;34.80;77.30
21280;DHT22;11764;43.100;25.716;2022-08-18T12:58:04;34.80;77.50
21280;DHT22;11764;43.100;25.716;2022-08-18T13:00:30;34.90;76.60
21280;DHT22;11764;43.100;25.716;2022-08-18T13:02:55;34.80;76.20
21280;DHT22;11764;43.100;25.716;2022-08-18T13:05:21;34.60;75.80
21280;DHT22;11764;43.100;25.716;2022-08-18T13:07:47;34.50;75.30
21280;DHT22;11764;43.100;25.716;2022-08-18T13:10:13;34.60;76.10
21280;DHT22;11764;43.100;25.716;2022-08-18T13:12:38;34.70;74.40
21280;DHT22;11764;43.100;25.716;2022-08-18T13:15:04;34.70;74.50
21280;DHT22;11764;43.100;25.716;2022-08-18T13:17:32;34.60;74.10
21280;DHT22;11764;43.100;25.716;2022-08-18T13:19:59;34.70;74.30
21280;DHT22;11764;43.100;25.716;2022-08-18T13:22:24;34.80;74.70
21280;DHT22;11764;43.100;25.716;2022-08-18T13:24:50;34.70;74.20
21280;DHT22;11764;43.100;25.716;2022-08-18T13:27:16;34.70;73.40
21280;DHT22;11764;43.100;25.716;2022-08-18T13:29:43;34.60;74.80
21280;DHT22;11764;43.100;25.716;2022-08-18T13:32:09;34.60;74.10
21280;DHT22;11764;43.100;25.716;2022-08-18T13:34:35;34.40;74.40
21280;DHT22;11764;43.100;25.716;2022-08-18T13:37:01;34.20;74.30
21280;DHT22;11764;43.100;25.716;2022-08-18T13:39:26;34.10;74.80
21280;DHT22;11764;43.100;25.716;2022-08-18T13:41:55;34.20;74.60
21280;DHT22;11764;43.100;25.716;2022-08-18T13:44:21;34.20;75.00
21280;DHT22;11764;43.100;25.716;2022-08-18T13:46:47;34.20;74.30
21280;DHT22;11764;43.100;25.716;2022-08-18T13:49:13;34.40;74.70
21280;DHT22;11764;43.100;25.716;2022-08-18T13:51:40;34.40;74.60
21280;DHT22;11764;43.100;25.716;2022-08-18T13:54:08;34.50;74.30
21280;DHT22;11764;43.100;25.716;2022-08-18T13:56:34;34.80;73.80
21280;DHT22;11764;43.100;25.716;2022-08-18T13:59:00;34.90;74.30
21280;DHT22;11764;43.100;25.716;2022-08-18T14:01:25;35.10;73.10
21280;DHT22;11764;43.100;25.716;2022-08-18T14:03:51;35.30;71.70
21280;DHT22;11764;43.100;25.716;2022-08-18T14:06:17;35.40;71.10
21280;DHT22;11764;43.100;25.716;2022-08-18T14:08:44;35.50;70.60
21280;DHT22;11764;43.100;25.716;2022-08-18T14:11:10;35.30;70.20
21280;DHT22;11764;43.100;25.716;2022-08-18T14:13:36;35.30;70.50
21280;DHT22;11764;43.100;25.716;2022-08-18T14:16:01;35.20;69.40
21280;DHT22;11764;43.100;25.716;2022-08-18T14:18:27;35.20;70.30
21280;DHT22;11764;43.100;25.716;2022-08-18T14:20:54;35.40;70.10
21280;DHT22;11764;43.100;25.716;2022-08-18T14:23:38;35.20;69.10
21280;DHT22;11764;43.100;25.716;2022-08-18T14:26:22;34.90;68.30
21280;DHT22;11764;43.100;25.716;2022-08-18T14:29:06;35.00;67.40
21280;DHT22;11764;43.100;25.716;2022-08-18T14:31:32;35.40;66.40
21280;DHT22;11764;43.100;25.716;2022-08-18T14:33:57;35.70;66.40
21280;DHT22;11764;43.100;25.716;2022-08-18T14:36:23;35.60;66.80
21280;DHT22;11764;43.100;25.716;2022-08-18T14:38:49;35.70;66.40
21280;DHT22;11764;43.100;25.716;2022-08-18T14:41:15;35.90;67.10
21280;DHT22;11764;43.100;25.716;2022-08-18T14:43:40;36.10;66.10
21280;DHT22;11764;43.100;25.716;2022-08-18T14:46:09;36.50;66.30
21280;DHT22;11764;43.100;25.716;2022-08-18T14:48:35;36.90;65.00
21280;DHT22;11764;43.100;25.716;2022-08-18T14:51:01;37.20;63.50
21280;DHT22;11764;43.100;25.716;2022-08-18T14:53:28;36.90;62.70
21280;DHT22;11764;43.100;25.716;2022-08-18T14:55:54;36.50;64.50
21280;DHT22;11764;43.100;25.716;2022-08-18T14:58:21;36.90;63.70
21280;DHT22;11764;43.100;25.716;2022-08-18T15:00:50;37.40;62.40
21280;DHT22;11764;43.100;25.716;2022-08-18T15:03:16;37.40;61.60
21280;DHT22;11764;43.100;25.716;2022-08-18T15:05:41;37.40;60.70
21280;DHT22;11764;43.100;25.716;2022-08-18T15:08:07;37.80;61.10
21280;DHT22;11764;43.100;25.716;2022-08-18T15:10:33;38.00;60.10
21280;DHT22;11764;43.100;25.716;2022-08-18T15:12:59;37.70;59.40
21280;DHT22;11764;43.100;25.716;2022-08-18T15:15:25;37.40;58.90
21280;DHT22;11764;43.100;25.716;2022-08-18T15:17:50;37.80;59.90
21280;DHT22;11764;43.100;25.716;2022-08-18T15:20:16;38.10;59.80
21280;DHT22;11764;43.100;25.716;2022-08-18T15:22:42;38.10;58.20
21280;DHT22;11764;43.100;25.716;2022-08-18T15:25:27;37.50;59.10
21280;DHT22;11764;43.100;25.716;2022-08-18T15:28:17;37.50;58.70
21280;DHT22;11764;43.100;25.716;2022-08-18T15:30:43;37.50;58.30
21280;DHT22;11764;43.100;25.716;2022-08-18T15:33:09;36.90;58.30
21280;DHT22;11764;43.100;25.716;2022-08-18T15:35:36;37.00;58.70
21280;DHT22;11764;43.100;25.716;2022-08-18T15:38:03;37.50;57.90
21280;DHT22;11764;43.100;25.716;2022-08-18T15:40:28;37.50;58.80
21280;DHT22;11764;43.100;25.716;2022-08-18T15:42:55;37.40;57.80
21280;DHT22;11764;43.100;25.716;2022-08-18T15:45:22;37.20;58.10
21280;DHT22;11764;43.100;25.716;2022-08-18T15:47:50;37.70;58.60
21280;DHT22;11764;43.100;25.716;2022-08-18T15:50:16;37.80;57.90
21280;DHT22;11764;43.100;25.716;2022-08-18T15:52:56;38.00;57.80
21280;DHT22;11764;43.100;25.716;2022-08-18T15:55:22;37.90;57.50
21280;DHT22;11764;43.100;25.716;2022-08-18T15:57:49;37.30;58.40
21280;DHT22;11764;43.100;25.716;2022-08-18T16:00:15;36.60;58.80
21280;DHT22;11764;43.100;25.716;2022-08-18T16:02:43;36.70;59.50
21280;DHT22;11764;43.100;25.716;2022-08-18T16:05:12;37.00;58.30
21280;DHT22;11764;43.100;25.716;2022-08-18T16:07:38;37.30;58.80
21280;DHT22;11764;43.100;25.716;2022-08-18T16:10:03;37.40;58.20
21280;DHT22;11764;43.100;25.716;2022-08-18T16:12:29;37.60;58.20
21280;DHT22;11764;43.100;25.716;2022-08-18T16:14:55;37.80;58.10
21280;DHT22;11764;43.100;25.716;2022-08-18T16:17:20;37.80;58.20
21280;DHT22;11764;43.100;25.716;2022-08-18T16:19:46;37.70;58.00
21280;DHT22;11764;43.100;25.716;2022-08-18T16:22:13;37.30;58.60
21280;DHT22;11764;43.100;25.716;2022-08-18T16:24:38;37.10;61.10
21280;DHT22;11764;43.100;25.716;2022-08-18T16:27:04;36.30;61.60
21280;DHT22;11764;43.100;25.716;2022-08-18T16:29:31;36.00;60.30
21280;DHT22;11764;43.100;25.716;2022-08-18T16:31:56;35.80;61.80
21280;DHT22;11764;43.100;25.716;2022-08-18T16:34:22;35.30;62.10
21280;DHT22;11764;43.100;25.716;2022-08-18T16:36:48;34.60;63.10
21280;DHT22;11764;43.100;25.716;2022-08-18T16:39:13;34.10;64.50
21280;DHT22;11764;43.100;25.716;2022-08-18T16:41:39;33.70;66.00
21280;DHT22;11764;43.100;25.716;2022-08-18T16:44:05;33.30;66.70
21280;DHT22;11764;43.100;25.716;2022-08-18T16:46:30;33.00;66.80
21280;DHT22;11764;43.100;25.716;2022-08-18T16:48:56;32.70;67.70
21280;DHT22;11764;43.100;25.716;2022-08-18T16:51:22;32.40;67.80
21280;DHT22;11764;43.100;25.716;2022-08-18T16:53:48;32.30;68.00
21280;DHT22;11764;43.100;25.716;2022-08-18T16:56:17;32.10;68.70
21280;DHT22;11764;43.100;25.716;2022-08-18T16:58:43;32.00;69.50
21280;DHT22;11764;43.100;25.716;2022-08-18T17:01:28;31.90;68.60
21280;DHT22;11764;43.100;25.716;2022-08-18T17:04:12;31.80;69.20
21280;DHT22;11764;43.100;25.716;2022-08-18T17:06:39;31.60;69.80
21280;DHT22;11764;43.100;25.716;2022-08-18T17:09:04;31.50;70.10
21280;DHT22;11764;43.100;25.716;2022-08-18T17:11:30;31.40;70.10
21280;DHT22;11764;43.100;25.716;2022-08-18T17:13:58;31.40;70.10
21280;DHT22;11764;43.100;25.716;2022-08-18T17:16:24;31.40;69.90
21280;DHT22;11764;43.100;25.716;2022-08-18T17:18:50;31.30;70.40
21280;DHT22;11764;43.100;25.716;2022-08-18T17:21:18;31.40;69.90
21280;DHT22;11764;43.100;25.716;2022-08-18T17:23:44;31.40;70.10
21280;DHT22;11764;43.100;25.716;2022-08-18T17:29:39;31.20;70.10
21280;DHT22;11764;43.100;25.716;2022-08-18T17:31:58;31.20;69.80
21280;DHT22;11764;43.100;25.716;2022-08-18T17:34:31;31.20;70.50
21280;DHT22;11764;43.100;25.716;2022-08-18T17:36:57;31.20;70.40
21280;DHT22;11764;43.100;25.716;2022-08-18T17:39:28;31.20;70.40
21280;DHT22;11764;43.100;25.716;2022-08-18T17:41:55;31.20;71.80
21280;DHT22;11764;43.100;25.716;2022-08-18T17:44:40;31.20;71.50
21280;DHT22;11764;43.100;25.716;2022-08-18T17:47:06;31.10;71.80
21280;DHT22;11764;43.100;25.716;2022-08-18T17:49:37;31.10;72.40
21280;DHT22;11764;43.100;25.716;2022-08-18T17:52:23;31.00;72.60
21280;DHT22;11764;43.100;25.716;2022-08-18T17:54:51;31.10;73.30
21280;DHT22;11764;43.100;25.716;2022-08-18T17:57:23;31.20;74.70